sensor_id;sensor_type;location;lat;lon;timestamp;P1;durP1;ratioP1;P2;durP2;ratioP2
51987;SDS011;38003;52.012;4.346;2022-10-20T00:02:01;7.67;;;6.07;;
51987;SDS011;38003;52.012;4.346;2022-10-20T00:04:30;8.77;;;6.27;;
51987;SDS011;38003;52.012;4.346;2022-10-20T00:06:58;14.53;;;5.60;;
51987;SDS011;38003;52.012;4.346;2022-10-20T00:09:26;8.77;;;6.53;;
51987;SDS011;38003;52.012;4.346;2022-10-20T00:11:54;9.43;;;6.50;;
51987;SDS011;38003;52.012;4.346;2022-10-20T00:14:21;7.03;;;5.93;;
51987;SDS011;38003;52.012;4.346;2022-10-20T00:16:49;9.43;;;6.20;;
51987;SDS011;38003;52.012;4.346;2022-10-20T00:19:17;8.07;;;6.60;;
51987;SDS011;38003;52.012;4.346;2022-10-20T00:21:46;7.20;;;6.40;;
51987;SDS011;38003;52.012;4.346;2022-10-20T00:24:14;11.33;;;6.70;;
51987;SDS011;38003;52.012;4.346;2022-10-20T00:26:41;9.47;;;6.50;;
51987;SDS011;38003;52.012;4.346;2022-10-20T00:29:09;8.00;;;6.57;;
51987;SDS011;38003;52.012;4.346;2022-10-20T00:31:37;9.00;;;6.50;;
51987;SDS011;38003;52.012;4.346;2022-10-20T00:34:05;8.67;;;6.33;;
51987;SDS011;38003;52.012;4.346;2022-10-20T00:36:33;9.70;;;6.83;;
51987;SDS011;38003;52.012;4.346;2022-10-20T00:39:03;9.70;;;6.80;;
51987;SDS011;38003;52.012;4.346;2022-10-20T00:41:32;9.43;;;6.93;;
51987;SDS011;38003;52.012;4.346;2022-10-20T00:44:01;10.00;;;6.67;;
51987;SDS011;38003;52.012;4.346;2022-10-20T00:46:31;11.20;;;6.53;;
51987;SDS011;38003;52.012;4.346;2022-10-20T00:49:05;11.00;;;7.50;;
51987;SDS011;38003;52.012;4.346;2022-10-20T00:51:38;8.10;;;7.00;;
51987;SDS011;38003;52.012;4.346;2022-10-20T00:54:09;12.50;;;7.40;;
51987;SDS011;38003;52.012;4.346;2022-10-20T00:56:41;7.93;;;6.90;;
51987;SDS011;38003;52.012;4.346;2022-10-20T00:59:10;9.13;;;8.07;;
51987;SDS011;38003;52.012;4.346;2022-10-20T01:01:42;12.07;;;6.97;;
51987;SDS011;38003;52.012;4.346;2022-10-20T01:04:11;7.67;;;6.87;;
51987;SDS011;38003;52.012;4.346;2022-10-20T01:06:39;11.47;;;7.67;;
51987;SDS011;38003;52.012;4.346;2022-10-20T01:09:09;11.13;;;7.10;;
51987;SDS011;38003;52.012;4.346;2022-10-20T01:11:37;10.33;;;7.57;;
51987;SDS011;38003;52.012;4.346;2022-10-20T01:14:18;7.97;;;6.80;;
51987;SDS011;38003;52.012;4.346;2022-10-20T01:16:57;10.27;;;7.13;;
51987;SDS011;38003;52.012;4.346;2022-10-20T01:19:34;12.47;;;7.43;;
51987;SDS011;38003;52.012;4.346;2022-10-20T01:22:31;9.57;;;7.50;;
51987;SDS011;38003;52.012;4.346;2022-10-20T01:25:15;9.87;;;7.60;;
51987;SDS011;38003;52.012;4.346;2022-10-20T01:27:51;10.83;;;7.50;;
51987;SDS011;38003;52.012;4.346;2022-10-20T01:30:22;10.07;;;7.67;;
51987;SDS011;38003;52.012;4.346;2022-10-20T01:32:53;14.23;;;7.97;;
51987;SDS011;38003;52.012;4.346;2022-10-20T01:35:35;9.57;;;7.23;;
51987;SDS011;38003;52.012;4.346;2022-10-20T01:38:10;10.40;;;7.50;;
51987;SDS011;38003;52.012;4.346;2022-10-20T01:40:47;10.20;;;7.13;;
51987;SDS011;38003;52.012;4.346;2022-10-20T01:43:20;9.13;;;7.53;;
51987;SDS011;38003;52.012;4.346;2022-10-20T01:45:50;9.47;;;7.50;;
51987;SDS011;38003;52.012;4.346;2022-10-20T01:48:22;14.50;;;7.80;;
51987;SDS011;38003;52.012;4.346;2022-10-20T01:50:54;9.67;;;7.90;;
51987;SDS011;38003;52.012;4.346;2022-10-20T01:53:22;10.57;;;7.73;;
51987;SDS011;38003;52.012;4.346;2022-10-20T01:55:50;12.27;;;8.00;;
51987;SDS011;38003;52.012;4.346;2022-10-20T01:58:24;9.90;;;8.33;;
51987;SDS011;38003;52.012;4.346;2022-10-20T02:01:16;8.73;;;7.83;;
51987;SDS011;38003;52.012;4.346;2022-10-20T02:03:52;11.87;;;8.50;;
51987;SDS011;38003;52.012;4.346;2022-10-20T02:06:28;9.70;;;7.90;;
51987;SDS011;38003;52.012;4.346;2022-10-20T02:09:02;13.13;;;8.23;;
51987;SDS011;38003;52.012;4.346;2022-10-20T02:11:36;10.50;;;8.57;;
51987;SDS011;38003;52.012;4.346;2022-10-20T02:14:10;10.87;;;8.57;;
51987;SDS011;38003;52.012;4.346;2022-10-20T02:16:42;11.73;;;8.90;;
51987;SDS011;38003;52.012;4.346;2022-10-20T02:19:13;9.70;;;8.13;;
51987;SDS011;38003;52.012;4.346;2022-10-20T02:21:44;11.17;;;8.80;;
51987;SDS011;38003;52.012;4.346;2022-10-20T02:24:13;11.80;;;8.97;;
51987;SDS011;38003;52.012;4.346;2022-10-20T02:26:43;10.00;;;8.07;;
51987;SDS011;38003;52.012;4.346;2022-10-20T02:29:13;10.73;;;8.47;;
51987;SDS011;38003;52.012;4.346;2022-10-20T02:31:44;9.40;;;8.10;;
51987;SDS011;38003;52.012;4.346;2022-10-20T02:34:13;9.70;;;8.60;;
51987;SDS011;38003;52.012;4.346;2022-10-20T02:36:41;12.33;;;8.47;;
51987;SDS011;38003;52.012;4.346;2022-10-20T02:39:10;12.60;;;8.63;;
51987;SDS011;38003;52.012;4.346;2022-10-20T02:41:38;12.30;;;9.03;;
51987;SDS011;38003;52.012;4.346;2022-10-20T02:44:06;9.27;;;8.37;;
51987;SDS011;38003;52.012;4.346;2022-10-20T02:46:35;14.87;;;9.43;;
51987;SDS011;38003;52.012;4.346;2022-10-20T02:49:03;11.83;;;9.33;;
51987;SDS011;38003;52.012;4.346;2022-10-20T02:51:30;13.43;;;9.53;;
51987;SDS011;38003;52.012;4.346;2022-10-20T02:53:58;10.03;;;8.87;;
51987;SDS011;38003;52.012;4.346;2022-10-20T02:56:26;11.73;;;8.97;;
51987;SDS011;38003;52.012;4.346;2022-10-20T02:58:56;12.50;;;10.20;;
51987;SDS011;38003;52.012;4.346;2022-10-20T03:01:24;11.90;;;9.03;;
51987;SDS011;38003;52.012;4.346;2022-10-20T03:03:53;13.53;;;9.60;;
51987;SDS011;38003;52.012;4.346;2022-10-20T03:06:25;19.57;;;10.03;;
51987;SDS011;38003;52.012;4.346;2022-10-20T03:08:53;12.70;;;9.93;;
51987;SDS011;38003;52.012;4.346;2022-10-20T03:11:21;13.67;;;9.30;;
51987;SDS011;38003;52.012;4.346;2022-10-20T03:13:49;13.67;;;10.10;;
51987;SDS011;38003;52.012;4.346;2022-10-20T03:16:17;12.80;;;10.87;;
51987;SDS011;38003;52.012;4.346;2022-10-20T03:18:44;12.87;;;10.40;;
51987;SDS011;38003;52.012;4.346;2022-10-20T03:21:14;13.87;;;10.90;;
51987;SDS011;38003;52.012;4.346;2022-10-20T03:23:41;14.83;;;10.67;;
51987;SDS011;38003;52.012;4.346;2022-10-20T03:26:09;15.00;;;10.70;;
51987;SDS011;38003;52.012;4.346;2022-10-20T03:28:38;13.70;;;10.17;;
51987;SDS011;38003;52.012;4.346;2022-10-20T03:31:06;15.07;;;10.53;;
51987;SDS011;38003;52.012;4.346;2022-10-20T03:33:35;14.83;;;10.57;;
51987;SDS011;38003;52.012;4.346;2022-10-20T03:36:03;15.97;;;11.03;;
51987;SDS011;38003;52.012;4.346;2022-10-20T03:38:33;13.27;;;10.50;;
51987;SDS011;38003;52.012;4.346;2022-10-20T03:41:01;14.80;;;11.27;;
51987;SDS011;38003;52.012;4.346;2022-10-20T03:43:28;15.83;;;11.57;;
51987;SDS011;38003;52.012;4.346;2022-10-20T03:46:00;14.27;;;10.77;;
51987;SDS011;38003;52.012;4.346;2022-10-20T03:48:29;14.30;;;11.40;;
51987;SDS011;38003;52.012;4.346;2022-10-20T03:50:58;14.10;;;11.37;;
51987;SDS011;38003;52.012;4.346;2022-10-20T03:53:26;17.30;;;11.73;;
51987;SDS011;38003;52.012;4.346;2022-10-20T03:55:56;14.20;;;11.70;;
51987;SDS011;38003;52.012;4.346;2022-10-20T03:58:24;15.53;;;11.47;;
51987;SDS011;38003;52.012;4.346;2022-10-20T04:00:51;15.27;;;11.40;;
51987;SDS011;38003;52.012;4.346;2022-10-20T04:03:20;15.23;;;11.97;;
51987;SDS011;38003;52.012;4.346;2022-10-20T04:05:48;16.43;;;12.80;;
51987;SDS011;38003;52.012;4.346;2022-10-20T04:08:15;15.60;;;12.10;;
51987;SDS011;38003;52.012;4.346;2022-10-20T04:10:43;13.17;;;11.77;;
51987;SDS011;38003;52.012;4.346;2022-10-20T04:13:13;15.37;;;11.80;;
51987;SDS011;38003;52.012;4.346;2022-10-20T04:15:40;17.30;;;12.83;;
51987;SDS011;38003;52.012;4.346;2022-10-20T04:18:08;18.43;;;12.10;;
51987;SDS011;38003;52.012;4.346;2022-10-20T04:20:36;16.73;;;12.43;;
51987;SDS011;38003;52.012;4.346;2022-10-20T04:23:08;14.97;;;11.90;;
51987;SDS011;38003;52.012;4.346;2022-10-20T04:25:38;19.77;;;12.77;;
51987;SDS011;38003;52.012;4.346;2022-10-20T04:28:10;18.10;;;12.73;;
51987;SDS011;38003;52.012;4.346;2022-10-20T04:30:39;16.13;;;13.03;;
51987;SDS011;38003;52.012;4.346;2022-10-20T04:33:08;18.50;;;13.00;;
51987;SDS011;38003;52.012;4.346;2022-10-20T04:35:35;16.97;;;12.97;;
51987;SDS011;38003;52.012;4.346;2022-10-20T04:38:04;17.43;;;12.27;;
51987;SDS011;38003;52.012;4.346;2022-10-20T04:40:31;16.90;;;13.77;;
51987;SDS011;38003;52.012;4.346;2022-10-20T04:42:59;17.83;;;13.43;;
51987;SDS011;38003;52.012;4.346;2022-10-20T04:45:27;20.10;;;13.73;;
51987;SDS011;38003;52.012;4.346;2022-10-20T04:47:56;19.03;;;14.10;;
51987;SDS011;38003;52.012;4.346;2022-10-20T04:50:24;15.33;;;13.10;;
51987;SDS011;38003;52.012;4.346;2022-10-20T04:52:52;17.90;;;14.17;;
51987;SDS011;38003;52.012;4.346;2022-10-20T04:55:20;18.87;;;13.93;;
51987;SDS011;38003;52.012;4.346;2022-10-20T04:57:48;17.40;;;13.93;;
51987;SDS011;38003;52.012;4.346;2022-10-20T05:00:15;16.90;;;13.43;;
51987;SDS011;38003;52.012;4.346;2022-10-20T05:02:43;17.10;;;13.80;;
51987;SDS011;38003;52.012;4.346;2022-10-20T05:05:13;17.30;;;14.03;;
51987;SDS011;38003;52.012;4.346;2022-10-20T05:07:41;16.93;;;14.67;;
51987;SDS011;38003;52.012;4.346;2022-10-20T05:10:09;19.00;;;14.77;;
51987;SDS011;38003;52.012;4.346;2022-10-20T05:12:36;16.90;;;13.60;;
51987;SDS011;38003;52.012;4.346;2022-10-20T05:15:05;19.83;;;14.67;;
51987;SDS011;38003;52.012;4.346;2022-10-20T05:17:33;17.83;;;14.73;;
51987;SDS011;38003;52.012;4.346;2022-10-20T05:20:01;20.93;;;14.90;;
51987;SDS011;38003;52.012;4.346;2022-10-20T05:22:30;21.90;;;14.90;;
51987;SDS011;38003;52.012;4.346;2022-10-20T05:24:58;17.63;;;14.20;;
51987;SDS011;38003;52.012;4.346;2022-10-20T05:27:46;17.53;;;14.90;;
51987;SDS011;38003;52.012;4.346;2022-10-20T05:30:14;19.13;;;15.57;;
51987;SDS011;38003;52.012;4.346;2022-10-20T05:32:42;19.07;;;15.13;;
51987;SDS011;38003;52.012;4.346;2022-10-20T05:35:09;21.03;;;15.83;;
51987;SDS011;38003;52.012;4.346;2022-10-20T05:37:38;19.20;;;16.03;;
51987;SDS011;38003;52.012;4.346;2022-10-20T05:40:07;21.30;;;15.50;;
51987;SDS011;38003;52.012;4.346;2022-10-20T05:42:35;22.17;;;15.80;;
51987;SDS011;38003;52.012;4.346;2022-10-20T05:45:04;22.27;;;16.87;;
51987;SDS011;38003;52.012;4.346;2022-10-20T05:47:33;22.97;;;17.40;;
51987;SDS011;38003;52.012;4.346;2022-10-20T05:50:01;21.70;;;16.47;;
51987;SDS011;38003;52.012;4.346;2022-10-20T05:52:29;19.67;;;16.07;;
51987;SDS011;38003;52.012;4.346;2022-10-20T05:54:58;21.50;;;17.57;;
51987;SDS011;38003;52.012;4.346;2022-10-20T05:57:26;19.87;;;16.47;;
51987;SDS011;38003;52.012;4.346;2022-10-20T05:59:54;20.93;;;16.57;;
51987;SDS011;38003;52.012;4.346;2022-10-20T06:02:21;23.97;;;15.97;;
51987;SDS011;38003;52.012;4.346;2022-10-20T06:04:49;21.33;;;15.50;;
51987;SDS011;38003;52.012;4.346;2022-10-20T06:07:17;22.47;;;17.07;;
51987;SDS011;38003;52.012;4.346;2022-10-20T06:09:45;22.87;;;16.50;;
51987;SDS011;38003;52.012;4.346;2022-10-20T06:12:14;21.20;;;16.80;;
51987;SDS011;38003;52.012;4.346;2022-10-20T06:14:41;20.77;;;16.20;;
51987;SDS011;38003;52.012;4.346;2022-10-20T06:17:09;19.67;;;16.13;;
51987;SDS011;38003;52.012;4.346;2022-10-20T06:19:37;23.10;;;16.30;;
51987;SDS011;38003;52.012;4.346;2022-10-20T06:22:05;22.60;;;15.70;;
51987;SDS011;38003;52.012;4.346;2022-10-20T06:24:33;20.63;;;15.60;;
51987;SDS011;38003;52.012;4.346;2022-10-20T06:27:00;21.13;;;16.03;;
51987;SDS011;38003;52.012;4.346;2022-10-20T06:29:30;19.83;;;15.60;;
51987;SDS011;38003;52.012;4.346;2022-10-20T06:31:57;19.20;;;15.57;;
51987;SDS011;38003;52.012;4.346;2022-10-20T06:34:25;22.07;;;16.03;;
51987;SDS011;38003;52.012;4.346;2022-10-20T06:36:53;18.20;;;15.87;;
51987;SDS011;38003;52.012;4.346;2022-10-20T06:39:21;20.17;;;15.90;;
51987;SDS011;38003;52.012;4.346;2022-10-20T06:41:50;19.43;;;15.63;;
51987;SDS011;38003;52.012;4.346;2022-10-20T06:44:20;20.73;;;15.73;;
51987;SDS011;38003;52.012;4.346;2022-10-20T06:46:50;23.43;;;15.40;;
51987;SDS011;38003;52.012;4.346;2022-10-20T06:49:18;21.20;;;15.50;;
51987;SDS011;38003;52.012;4.346;2022-10-20T06:51:46;20.63;;;15.80;;
51987;SDS011;38003;52.012;4.346;2022-10-20T06:54:15;28.43;;;15.97;;
51987;SDS011;38003;52.012;4.346;2022-10-20T06:56:43;23.03;;;16.70;;
51987;SDS011;38003;52.012;4.346;2022-10-20T06:59:10;18.67;;;15.67;;
51987;SDS011;38003;52.012;4.346;2022-10-20T07:01:38;21.47;;;15.60;;
51987;SDS011;38003;52.012;4.346;2022-10-20T07:04:10;19.67;;;15.80;;
51987;SDS011;38003;52.012;4.346;2022-10-20T07:06:41;20.77;;;15.77;;
51987;SDS011;38003;52.012;4.346;2022-10-20T07:09:11;21.20;;;15.13;;
51987;SDS011;38003;52.012;4.346;2022-10-20T07:11:40;19.30;;;16.23;;
51987;SDS011;38003;52.012;4.346;2022-10-20T07:14:09;21.07;;;16.57;;
51987;SDS011;38003;52.012;4.346;2022-10-20T07:16:37;18.23;;;15.30;;
51987;SDS011;38003;52.012;4.346;2022-10-20T07:19:05;22.13;;;15.73;;
51987;SDS011;38003;52.012;4.346;2022-10-20T07:21:35;19.30;;;14.97;;
51987;SDS011;38003;52.012;4.346;2022-10-20T07:24:06;18.30;;;15.33;;
51987;SDS011;38003;52.012;4.346;2022-10-20T07:26:35;21.87;;;15.40;;
51987;SDS011;38003;52.012;4.346;2022-10-20T07:29:05;23.30;;;15.50;;
51987;SDS011;38003;52.012;4.346;2022-10-20T07:31:34;19.33;;;14.43;;
51987;SDS011;38003;52.012;4.346;2022-10-20T07:34:04;20.10;;;14.90;;
51987;SDS011;38003;52.012;4.346;2022-10-20T07:36:54;19.80;;;15.27;;
51987;SDS011;38003;52.012;4.346;2022-10-20T07:39:22;17.37;;;15.33;;
51987;SDS011;38003;52.012;4.346;2022-10-20T07:41:50;20.53;;;15.40;;
51987;SDS011;38003;52.012;4.346;2022-10-20T07:44:19;18.83;;;14.67;;
51987;SDS011;38003;52.012;4.346;2022-10-20T07:46:46;21.13;;;15.50;;
51987;SDS011;38003;52.012;4.346;2022-10-20T07:49:14;68.63;;;19.67;;
51987;SDS011;38003;52.012;4.346;2022-10-20T07:52:04;26.13;;;16.00;;
51987;SDS011;38003;52.012;4.346;2022-10-20T07:54:32;23.60;;;15.30;;
51987;SDS011;38003;52.012;4.346;2022-10-20T07:57:00;23.87;;;15.70;;
51987;SDS011;38003;52.012;4.346;2022-10-20T07:59:27;74.47;;;21.03;;
51987;SDS011;38003;52.012;4.346;2022-10-20T08:01:55;40.83;;;16.27;;
51987;SDS011;38003;52.012;4.346;2022-10-20T08:04:25;22.47;;;15.80;;
51987;SDS011;38003;52.012;4.346;2022-10-20T08:06:53;17.27;;;14.80;;
51987;SDS011;38003;52.012;4.346;2022-10-20T08:09:23;16.63;;;14.20;;
51987;SDS011;38003;52.012;4.346;2022-10-20T08:11:50;20.87;;;15.40;;
51987;SDS011;38003;52.012;4.346;2022-10-20T08:14:21;18.47;;;14.93;;
51987;SDS011;38003;52.012;4.346;2022-10-20T08:16:51;19.07;;;14.77;;
51987;SDS011;38003;52.012;4.346;2022-10-20T08:19:26;20.30;;;15.67;;
51987;SDS011;38003;52.012;4.346;2022-10-20T08:21:59;18.97;;;14.83;;
51987;SDS011;38003;52.012;4.346;2022-10-20T08:24:28;17.87;;;14.97;;
51987;SDS011;38003;52.012;4.346;2022-10-20T08:26:56;20.90;;;15.33;;
51987;SDS011;38003;52.012;4.346;2022-10-20T08:29:25;18.37;;;14.70;;
51987;SDS011;38003;52.012;4.346;2022-10-20T08:31:53;19.77;;;15.37;;
51987;SDS011;38003;52.012;4.346;2022-10-20T08:34:20;18.43;;;15.23;;
51987;SDS011;38003;52.012;4.346;2022-10-20T08:36:48;20.27;;;15.17;;
51987;SDS011;38003;52.012;4.346;2022-10-20T08:39:16;19.07;;;15.63;;
51987;SDS011;38003;52.012;4.346;2022-10-20T08:41:46;18.13;;;14.57;;
51987;SDS011;38003;52.012;4.346;2022-10-20T08:44:37;21.67;;;14.73;;
51987;SDS011;38003;52.012;4.346;2022-10-20T08:47:15;20.83;;;14.77;;
51987;SDS011;38003;52.012;4.346;2022-10-20T08:49:51;20.43;;;15.43;;
51987;SDS011;38003;52.012;4.346;2022-10-20T08:52:20;20.20;;;14.77;;
51987;SDS011;38003;52.012;4.346;2022-10-20T08:54:51;18.30;;;15.23;;
51987;SDS011;38003;52.012;4.346;2022-10-20T08:57:23;20.03;;;15.27;;
51987;SDS011;38003;52.012;4.346;2022-10-20T08:59:53;17.23;;;15.00;;
51987;SDS011;38003;52.012;4.346;2022-10-20T09:02:33;18.27;;;14.77;;
51987;SDS011;38003;52.012;4.346;2022-10-20T09:05:01;17.03;;;14.57;;
51987;SDS011;38003;52.012;4.346;2022-10-20T09:07:33;20.07;;;14.97;;
51987;SDS011;38003;52.012;4.346;2022-10-20T09:10:04;18.90;;;14.13;;
51987;SDS011;38003;52.012;4.346;2022-10-20T09:12:44;18.30;;;14.17;;
51987;SDS011;38003;52.012;4.346;2022-10-20T09:15:15;18.07;;;14.30;;
51987;SDS011;38003;52.012;4.346;2022-10-20T09:17:45;20.60;;;14.90;;
51987;SDS011;38003;52.012;4.346;2022-10-20T09:20:16;17.93;;;14.03;;
51987;SDS011;38003;52.012;4.346;2022-10-20T09:22:47;19.07;;;14.17;;
51987;SDS011;38003;52.012;4.346;2022-10-20T09:25:17;19.27;;;14.50;;
51987;SDS011;38003;52.012;4.346;2022-10-20T09:27:50;20.23;;;14.53;;
51987;SDS011;38003;52.012;4.346;2022-10-20T09:30:19;20.33;;;14.63;;
51987;SDS011;38003;52.012;4.346;2022-10-20T09:32:49;19.30;;;14.60;;
51987;SDS011;38003;52.012;4.346;2022-10-20T09:35:18;20.63;;;14.57;;
51987;SDS011;38003;52.012;4.346;2022-10-20T09:37:53;19.03;;;13.13;;
51987;SDS011;38003;52.012;4.346;2022-10-20T09:40:24;21.13;;;14.30;;
51987;SDS011;38003;52.012;4.346;2022-10-20T09:42:56;21.93;;;14.53;;
51987;SDS011;38003;52.012;4.346;2022-10-20T09:45:27;17.13;;;15.00;;
51987;SDS011;38003;52.012;4.346;2022-10-20T09:47:58;17.50;;;14.60;;
51987;SDS011;38003;52.012;4.346;2022-10-20T09:50:30;20.30;;;13.97;;
51987;SDS011;38003;52.012;4.346;2022-10-20T09:53:01;17.37;;;14.27;;
51987;SDS011;38003;52.012;4.346;2022-10-20T09:55:33;21.13;;;14.33;;
51987;SDS011;38003;52.012;4.346;2022-10-20T09:58:13;19.33;;;14.10;;
51987;SDS011;38003;52.012;4.346;2022-10-20T10:00:45;16.97;;;14.87;;
51987;SDS011;38003;52.012;4.346;2022-10-20T10:03:22;20.37;;;14.90;;
51987;SDS011;38003;52.012;4.346;2022-10-20T10:05:52;17.57;;;14.37;;
51987;SDS011;38003;52.012;4.346;2022-10-20T10:08:21;18.17;;;14.50;;
51987;SDS011;38003;52.012;4.346;2022-10-20T10:10:58;17.20;;;14.53;;
51987;SDS011;38003;52.012;4.346;2022-10-20T10:13:29;19.53;;;14.90;;
51987;SDS011;38003;52.012;4.346;2022-10-20T10:16:05;19.67;;;15.43;;
51987;SDS011;38003;52.012;4.346;2022-10-20T10:18:35;20.63;;;14.70;;
51987;SDS011;38003;52.012;4.346;2022-10-20T10:21:04;22.97;;;15.63;;
51987;SDS011;38003;52.012;4.346;2022-10-20T10:23:34;21.07;;;15.67;;
51987;SDS011;38003;52.012;4.346;2022-10-20T10:26:32;18.20;;;15.20;;
51987;SDS011;38003;52.012;4.346;2022-10-20T10:29:13;20.70;;;14.90;;
51987;SDS011;38003;52.012;4.346;2022-10-20T10:31:45;20.93;;;16.13;;
51987;SDS011;38003;52.012;4.346;2022-10-20T10:37:13;19.90;;;15.33;;
51987;SDS011;38003;52.012;4.346;2022-10-20T10:39:42;20.97;;;15.50;;
51987;SDS011;38003;52.012;4.346;2022-10-20T10:42:19;21.13;;;15.53;;
51987;SDS011;38003;52.012;4.346;2022-10-20T10:45:05;20.27;;;15.73;;
51987;SDS011;38003;52.012;4.346;2022-10-20T10:47:51;22.07;;;15.07;;
51987;SDS011;38003;52.012;4.346;2022-10-20T10:50:36;19.70;;;15.07;;
51987;SDS011;38003;52.012;4.346;2022-10-20T10:53:13;19.73;;;15.50;;
51987;SDS011;38003;52.012;4.346;2022-10-20T10:55:52;18.67;;;15.00;;
51987;SDS011;38003;52.012;4.346;2022-10-20T10:58:30;21.73;;;16.07;;
51987;SDS011;38003;52.012;4.346;2022-10-20T11:01:11;18.03;;;15.80;;
51987;SDS011;38003;52.012;4.346;2022-10-20T11:03:52;20.37;;;15.27;;
51987;SDS011;38003;52.012;4.346;2022-10-20T11:06:40;20.70;;;15.80;;
51987;SDS011;38003;52.012;4.346;2022-10-20T11:09:17;21.57;;;15.73;;
51987;SDS011;38003;52.012;4.346;2022-10-20T11:11:59;21.53;;;15.33;;
51987;SDS011;38003;52.012;4.346;2022-10-20T11:14:45;21.23;;;15.60;;
51987;SDS011;38003;52.012;4.346;2022-10-20T11:17:28;20.43;;;16.23;;
51987;SDS011;38003;52.012;4.346;2022-10-20T11:20:14;20.80;;;15.20;;
51987;SDS011;38003;52.012;4.346;2022-10-20T11:22:50;18.43;;;15.63;;
51987;SDS011;38003;52.012;4.346;2022-10-20T11:25:31;33.77;;;17.23;;
51987;SDS011;38003;52.012;4.346;2022-10-20T11:28:04;26.53;;;16.20;;
51987;SDS011;38003;52.012;4.346;2022-10-20T11:30:46;19.50;;;16.53;;
51987;SDS011;38003;52.012;4.346;2022-10-20T11:33:17;20.83;;;17.10;;
51987;SDS011;38003;52.012;4.346;2022-10-20T11:35:51;21.77;;;17.23;;
51987;SDS011;38003;52.012;4.346;2022-10-20T11:38:24;22.90;;;16.47;;
51987;SDS011;38003;52.012;4.346;2022-10-20T11:40:58;22.53;;;17.47;;
51987;SDS011;38003;52.012;4.346;2022-10-20T11:43:29;20.00;;;16.63;;
51987;SDS011;38003;52.012;4.346;2022-10-20T11:46:03;19.07;;;16.17;;
51987;SDS011;38003;52.012;4.346;2022-10-20T11:48:35;23.07;;;16.73;;
51987;SDS011;38003;52.012;4.346;2022-10-20T11:51:15;27.37;;;18.10;;
51987;SDS011;38003;52.012;4.346;2022-10-20T11:53:59;19.07;;;16.13;;
51987;SDS011;38003;52.012;4.346;2022-10-20T11:56:46;22.00;;;16.80;;
51987;SDS011;38003;52.012;4.346;2022-10-20T12:02:19;19.53;;;16.60;;
51987;SDS011;38003;52.012;4.346;2022-10-20T12:05:18;19.37;;;15.93;;
51987;SDS011;38003;52.012;4.346;2022-10-20T12:07:59;22.20;;;17.27;;
51987;SDS011;38003;52.012;4.346;2022-10-20T12:10:57;22.07;;;17.03;;
51987;SDS011;38003;52.012;4.346;2022-10-20T12:13:32;23.57;;;16.90;;
51987;SDS011;38003;52.012;4.346;2022-10-20T12:16:06;23.43;;;16.83;;
51987;SDS011;38003;52.012;4.346;2022-10-20T12:18:34;23.37;;;17.43;;
51987;SDS011;38003;52.012;4.346;2022-10-20T12:21:05;26.07;;;17.43;;
51987;SDS011;38003;52.012;4.346;2022-10-20T12:26:38;25.03;;;17.63;;
51987;SDS011;38003;52.012;4.346;2022-10-20T12:32:24;28.30;;;19.23;;
51987;SDS011;38003;52.012;4.346;2022-10-20T12:38:27;29.50;;;18.63;;
51987;SDS011;38003;52.012;4.346;2022-10-20T12:40:58;131.10;;;28.13;;
51987;SDS011;38003;52.012;4.346;2022-10-20T12:46:16;33.80;;;18.13;;
51987;SDS011;38003;52.012;4.346;2022-10-20T12:48:47;21.33;;;16.63;;
51987;SDS011;38003;52.012;4.346;2022-10-20T12:51:23;23.47;;;17.13;;
51987;SDS011;38003;52.012;4.346;2022-10-20T12:54:03;21.23;;;16.83;;
51987;SDS011;38003;52.012;4.346;2022-10-20T12:56:35;24.13;;;17.03;;
51987;SDS011;38003;52.012;4.346;2022-10-20T12:59:07;21.73;;;17.20;;
51987;SDS011;38003;52.012;4.346;2022-10-20T13:04:56;24.90;;;17.40;;
51987;SDS011;38003;52.012;4.346;2022-10-20T13:10:30;25.77;;;16.97;;
51987;SDS011;38003;52.012;4.346;2022-10-20T13:16:11;21.13;;;17.00;;
51987;SDS011;38003;52.012;4.346;2022-10-20T13:18:50;21.07;;;18.23;;
51987;SDS011;38003;52.012;4.346;2022-10-20T13:21:21;23.13;;;18.83;;
51987;SDS011;38003;52.012;4.346;2022-10-20T13:23:59;22.10;;;18.57;;
51987;SDS011;38003;52.012;4.346;2022-10-20T13:26:34;20.73;;;18.50;;
51987;SDS011;38003;52.012;4.346;2022-10-20T13:29:09;19.83;;;17.73;;
51987;SDS011;38003;52.012;4.346;2022-10-20T13:31:40;21.93;;;19.10;;
51987;SDS011;38003;52.012;4.346;2022-10-20T13:34:15;22.33;;;18.30;;
51987;SDS011;38003;52.012;4.346;2022-10-20T13:36:53;23.10;;;18.30;;
51987;SDS011;38003;52.012;4.346;2022-10-20T13:39:32;19.67;;;17.63;;
51987;SDS011;38003;52.012;4.346;2022-10-20T13:42:09;20.77;;;18.43;;
51987;SDS011;38003;52.012;4.346;2022-10-20T13:44:51;20.07;;;17.87;;
51987;SDS011;38003;52.012;4.346;2022-10-20T13:47:38;24.27;;;18.00;;
51987;SDS011;38003;52.012;4.346;2022-10-20T13:50:16;21.00;;;18.10;;
51987;SDS011;38003;52.012;4.346;2022-10-20T13:52:48;22.80;;;17.70;;
51987;SDS011;38003;52.012;4.346;2022-10-20T13:55:18;24.90;;;17.63;;
51987;SDS011;38003;52.012;4.346;2022-10-20T13:57:51;20.63;;;18.43;;
51987;SDS011;38003;52.012;4.346;2022-10-20T14:00:22;20.63;;;17.57;;
51987;SDS011;38003;52.012;4.346;2022-10-20T14:02:54;20.07;;;17.40;;
51987;SDS011;38003;52.012;4.346;2022-10-20T14:05:24;19.73;;;17.00;;
51987;SDS011;38003;52.012;4.346;2022-10-20T14:07:53;19.93;;;17.90;;
51987;SDS011;38003;52.012;4.346;2022-10-20T14:10:23;23.20;;;17.60;;
51987;SDS011;38003;52.012;4.346;2022-10-20T14:12:55;20.47;;;16.80;;
51987;SDS011;38003;52.012;4.346;2022-10-20T14:15:25;21.60;;;17.23;;
51987;SDS011;38003;52.012;4.346;2022-10-20T14:17:59;21.10;;;16.80;;
51987;SDS011;38003;52.012;4.346;2022-10-20T14:20:29;21.70;;;16.83;;
51987;SDS011;38003;52.012;4.346;2022-10-20T14:22:58;18.63;;;16.77;;
51987;SDS011;38003;52.012;4.346;2022-10-20T14:25:27;20.90;;;17.43;;
51987;SDS011;38003;52.012;4.346;2022-10-20T14:27:58;17.93;;;16.03;;
51987;SDS011;38003;52.012;4.346;2022-10-20T14:30:32;21.53;;;16.27;;
51987;SDS011;38003;52.012;4.346;2022-10-20T14:33:09;20.97;;;17.03;;
51987;SDS011;38003;52.012;4.346;2022-10-20T14:35:40;20.13;;;16.83;;
51987;SDS011;38003;52.012;4.346;2022-10-20T14:38:14;18.73;;;14.93;;
51987;SDS011;38003;52.012;4.346;2022-10-20T14:40:48;19.20;;;15.10;;
51987;SDS011;38003;52.012;4.346;2022-10-20T14:43:19;18.83;;;15.10;;
51987;SDS011;38003;52.012;4.346;2022-10-20T14:45:50;17.57;;;14.40;;
51987;SDS011;38003;52.012;4.346;2022-10-20T14:48:20;17.77;;;13.07;;
51987;SDS011;38003;52.012;4.346;2022-10-20T14:50:50;15.53;;;12.83;;
51987;SDS011;38003;52.012;4.346;2022-10-20T14:53:28;15.80;;;13.17;;
51987;SDS011;38003;52.012;4.346;2022-10-20T14:55:58;18.27;;;13.20;;
51987;SDS011;38003;52.012;4.346;2022-10-20T14:58:30;13.60;;;12.23;;
51987;SDS011;38003;52.012;4.346;2022-10-20T15:01:13;15.53;;;12.50;;
51987;SDS011;38003;52.012;4.346;2022-10-20T15:04:01;16.33;;;11.97;;
51987;SDS011;38003;52.012;4.346;2022-10-20T15:06:31;15.80;;;12.70;;
51987;SDS011;38003;52.012;4.346;2022-10-20T15:08:59;21.40;;;13.20;;
51987;SDS011;38003;52.012;4.346;2022-10-20T15:11:27;20.77;;;13.40;;
51987;SDS011;38003;52.012;4.346;2022-10-20T15:13:58;14.57;;;12.30;;
51987;SDS011;38003;52.012;4.346;2022-10-20T15:16:30;16.93;;;12.03;;
51987;SDS011;38003;52.012;4.346;2022-10-20T15:19:10;16.23;;;12.03;;
51987;SDS011;38003;52.012;4.346;2022-10-20T15:21:45;16.63;;;12.90;;